Latest Coastal Weather Observations for Truscott

IDD60701

Issued at 5:15 am CST Wednesday 1 October 2014 (issued every 10 minutes, with the page automatically refreshed every 10 minutes)

About coastal observations | Map of coastal stations | Coastal observations for NT | Marine services | Other Formats
Station Details ID: 001020 Name: TRUSCOTT Lat: -14.09 Lon: 126.39 Height: 51.0 m
Data from the previous 72 hours. | See also: Recent months at Truscott
Date/Time
CST
Temp

°C
Wind Pressure Rain
since 9am
mm
Weather Cloud Vis
km
Sea
Height
m
Swell
Dir
 
Speed
knots
Gust
knots
hPa Trend Height
m
Period
s
Dir
01/05:00am 23.8 W 3 4 1011.6 - 0.0 - Partly cloudy 10 - - - -
01/04:30am 23.8 W 3 5 1010.9 - 0.0 - - 10 - - - -
01/04:00am 24.3 W 4 5 1011.4 - 0.0 - - 10 - - - -
01/03:30am 24.4 W 5 6 1011.6 - 0.0 - - 10 - - - -
01/03:00am 24.3 WSW 4 5 1011.8 - 0.0 - - 10 - - - -
01/02:30am 24.3 WSW 4 5 1011.9 - 0.0 - - 10 - - - -
01/02:00am 24.4 WSW 4 5 1012.0 - 0.0 - - 10 - - - -
01/01:30am 23.9 W 3 4 1011.5 - 0.0 - - 10 - - - -
01/01:00am 23.6 W 3 4 1012.5 - 0.0 - - 10 - - - -
01/12:30am 23.4 WNW 3 3 1012.8 - 0.0 - - 10 - - - -
01/12:00am 23.5 W 1 3 1012.9 - 0.0 - - 10 - - - -
 
Date/Time
CST
Temp

°C
Wind Pressure Rain
since 9am
mm
Weather Cloud Vis
km
Sea
Height
m
Swell
Dir
 
Speed
knots
Gust
knots
hPa Trend Height
m
Period
s
Dir
30/11:30pm 24.5 W 3 4 1013.1 - 0.0 - - 10 - - - -
30/11:00pm 24.2 WSW 2 4 1013.3 - 0.0 - - 10 - - - -
30/10:30pm 24.2 CALM 0 0 1012.9 - 0.0 - - 10 - - - -
30/10:00pm 25.2 N 1 3 1013.5 - 0.0 - - 10 - - - -
30/09:30pm 25.4 N 3 4 1013.3 - 0.0 - - 10 - - - -
30/09:00pm 25.8 N 4 5 1013.0 - 0.0 - - 10 - - - -
30/08:30pm 26.0 N 5 7 1012.6 - 0.0 - - 10 - - - -
30/08:00pm 26.2 N 5 7 1012.3 - 0.0 - Partly cloudy 10 - - - -
30/07:30pm 26.4 N 5 8 1011.6 - 0.0 - Mostly clear 10 - - - -
30/07:00pm 26.5 N 6 10 1011.6 - 0.0 - - 10 - - - -
30/06:30pm 26.8 N 8 12 1011.3 - 0.0 - - 10 - - - -
30/06:00pm 27.6 NNW 8 11 1010.8 - 0.0 - - 10 - - - -
30/05:30pm 28.2 N 8 14 1010.4 - 0.0 - - 10 - - - -
30/05:00pm 28.3 N 8 14 1010.4 - 0.0 - - 10 - - - -
30/04:30pm 28.9 N 8 14 1010.0 - 0.0 - - 10 - - - -
30/04:00pm 29.0 N 9 14 1010.6 - 0.0 - - 10 - - - -
30/03:30pm 29.9 N 8 13 1010.8 - 0.0 - - 10 - - - -
30/03:00pm 30.4 N 9 15 1011.1 - 0.0 - - 10 - - - -
30/02:30pm 29.9 N 11 15 1011.5 - 0.0 - - 10 - - - -
30/02:00pm 31.1 N 9 14 1011.8 - 0.0 - - 10 - - - -
30/01:30pm 30.5 N 11 15 1011.6 - 0.0 - - 10 - - - -
30/01:00pm 30.2 N 10 15 1012.5 - 0.0 - - 10 - - - -
30/12:30pm 30.6 N 10 14 1012.9 - 0.0 - - 10 - - - -
30/12:00pm 30.4 N 10 15 1013.5 - 0.0 - - 10 - - - -
30/11:30am 30.6 NW 7 12 1013.5 - 0.0 - - 10 - - - -
30/11:00am 29.7 WNW 6 9 1013.6 - 0.0 - - 10 - - - -
30/10:30am 29.2 WNW 5 9 1013.4 - 0.0 - - 10 - - - -
30/10:00am 28.4 W 6 9 1014.0 - 0.0 - Partly cloudy 10 - - - -
30/09:30am 27.9 WNW 4 8 1014.1 - 0.0 - - 10 - - - -
30/09:00am 27.4 WNW 5 8 1013.8 - 0.0 - Partly cloudy 10 - - - -
30/08:30am 26.0 WNW 4 5 1013.5 - 0.0 - Partly cloudy 10 - - - -
30/08:00am 25.3 WSW 2 4 1013.3 - 0.0 - Partly cloudy 10 - - - -
30/07:30am 23.5 CALM 0 0 1012.4 - 0.0 - Mostly clear 10 - - - -
30/07:00am 22.6 WNW 2 4 1012.6 - 0.0 - Partly cloudy 10 - - - -
30/06:30am 22.5 WSW 2 4 1012.3 - 0.0 - Partly cloudy 10 - - - -
30/06:00am 22.6 NW 3 5 1012.0 - 0.0 - Partly cloudy 10 - - - -
30/05:30am 22.3 CALM 0 0 1011.8 - 0.0 - - 10 - - - -
30/05:00am 22.8 WNW 3 4 1011.4 - 0.0 - - 10 - - - -
30/04:30am 22.8 CALM 0 0 1010.9 - 0.0 - - 10 - - - -
30/04:00am 22.3 CALM 0 0 1011.2 - 0.0 - - 10 - - - -
30/03:30am 22.6 CALM 0 0 1011.2 - 0.0 - - 10 - - - -
30/03:00am 23.2 W 3 4 1011.3 - 0.0 - Partly cloudy 10 - - - -
30/02:30am 23.1 CALM 0 0 1011.5 - 0.0 - Partly cloudy 10 - - - -
30/02:00am 23.0 CALM 0 0 1011.6 - 0.0 - - 10 - - - -
30/01:30am 23.4 CALM 0 3 1011.3 - 0.0 - - 10 - - - -
30/01:00am 23.7 WNW 3 4 1012.1 - 0.0 - - 10 - - - -
30/12:30am 23.6 CALM 0 0 1012.4 - 0.0 - - 10 - - - -
30/12:00am 24.8 CALM 0 3 1012.8 - 0.0 - - 10 - - - -
 
Date/Time
CST
Temp

°C
Wind Pressure Rain
since 9am
mm
Weather Cloud Vis
km
Sea
Height
m
Swell
Dir
 
Speed
knots
Gust
knots
hPa Trend Height
m
Period
s
Dir
29/11:30pm 25.4 CALM 0 0 1012.8 - 0.0 - Partly cloudy 10 - - - -
29/11:00pm 25.3 WNW 4 5 1012.8 - 0.0 - Partly cloudy 10 - - - -
29/10:30pm 25.4 NW 3 5 1012.3 - 0.0 - - 10 - - - -
29/10:00pm 25.8 NW 5 7 1012.5 - 0.0 - - 10 - - - -
29/09:30pm 26.0 NW 5 7 1012.2 - 0.0 - Partly cloudy 10 - - - -
29/09:00pm 26.0 NW 5 8 1011.8 - 0.0 - - 10 - - - -
29/08:30pm 26.0 NW 5 6 1011.5 - 0.0 - Partly cloudy 10 - - - -
29/08:00pm 26.0 NW 5 7 1010.9 - 0.0 - Partly cloudy 10 - - - -
29/07:30pm 26.2 NW 6 9 1010.0 - 0.0 - - 10 - - - -
29/07:00pm 26.5 NW 6 12 1010.3 - 0.0 - - 10 - - - -
29/06:30pm 27.1 NW 9 12 1010.0 - 0.0 - - 10 - - - -
29/06:00pm 27.6 NW 10 16 1009.8 - 0.0 - - 10 - - - -
29/05:30pm 28.2 NW 9 13 1009.7 - 0.0 - Partly cloudy 10 - - - -
29/05:00pm 28.6 NNW 10 14 1009.6 - 0.0 - - 10 - - - -
29/04:30pm 29.1 NNW 9 15 1009.2 - 0.0 - Mostly clear 10 - - - -
29/04:00pm 29.1 N 11 17 1009.9 - 0.0 - Partly cloudy 10 - - - -
29/03:30pm 29.7 N 9 16 1010.1 - 0.0 - Partly cloudy 10 - - - -
29/03:00pm 29.4 N 11 17 1010.4 - 0.0 - - 10 - - - -
29/02:30pm 29.9 NW 12 18 1010.5 - 0.0 - Partly cloudy 10 - - - -
29/02:00pm 30.3 N 11 15 1011.1 - 0.0 - Partly cloudy 10 - - - -
29/01:30pm 30.4 NNW 10 18 1010.7 - 0.0 - - 10 - - - -
29/01:00pm 30.2 N 11 17 1011.4 - 0.0 - - 10 - - - -
29/12:30pm 30.6 N 12 20 1012.4 - 0.0 - - 10 - - - -
29/12:00pm 31.2 NNE 10 16 1012.6 - 0.0 - Partly cloudy 10 - - - -
29/11:30am 31.4 W 6 11 1012.5 - 0.0 - - 10 - - - -
29/11:00am 30.3 NW 6 9 1012.8 - 0.0 - - 10 - - - -
29/10:30am 30.1 WNW 5 9 1012.3 - 0.0 - - 10 - - - -
29/10:00am 29.0 W 4 7 1012.8 - 0.0 - Partly cloudy 10 - - - -
29/09:30am 28.0 W 3 6 1012.8 - 0.0 - Partly cloudy 10 - - - -
29/09:28am 27.8 WSW 3 6 1012.8 - 0.0 - Partly cloudy 10 - - - -
29/09:12am 28.2 E 3 6 1012.7 - 0.0 - Partly cloudy 10 - - - -
29/09:00am 27.7 WSW 5 8 1012.3 - 0.0 - Partly cloudy 10 - - - -
29/08:30am 26.5 W 6 11 1012.0 - 0.0 - - 10 - - - -
29/08:00am 25.3 W 5 6 1011.7 - 0.0 - - 10 - - - -
29/07:30am 23.9 W 3 5 1011.0 - 0.0 - - 10 - - - -
29/07:00am 22.0 W 1 3 1011.3 - 0.0 - - 10 - - - -
29/06:30am 22.3 W 1 3 1011.0 - 0.0 - - 10 - - - -
29/06:00am 23.5 W 4 6 1010.7 - 0.0 - - 10 - - - -
29/05:30am 22.9 W 4 5 1010.4 - 0.0 - - 10 - - - -
29/05:00am 23.0 W 4 5 1010.3 - 0.0 - - 10 - - - -
29/04:30am 22.9 W 5 6 1009.7 - 0.0 - - 10 - - - -
29/04:00am 23.9 W 5 7 1010.2 - 0.0 - - 10 - - - -
29/03:30am 23.6 W 4 6 1010.1 - 0.0 - - 10 - - - -
29/03:00am 23.9 W 4 6 1010.2 - 0.0 - - 10 - - - -
29/02:30am 24.1 SW 3 5 1010.4 - 0.0 - - 10 - - - -
29/02:00am 24.4 W 5 7 1010.5 - 0.0 - - 10 - - - -
29/01:30am 24.5 W 5 6 1010.3 - 0.0 - - 10 - - - -
29/01:00am 24.8 W 4 6 1011.3 - 0.0 - - 10 - - - -
29/12:30am 25.1 W 5 7 1011.6 - 0.0 - - 10 - - - -
29/12:00am 25.1 W 5 7 1011.8 - 0.0 - - 10 - - - -
 
Date/Time
CST
Temp

°C
Wind Pressure Rain
since 9am
mm
Weather Cloud Vis
km
Sea
Height
m
Swell
Dir
 
Speed
knots
Gust
knots
hPa Trend Height
m
Period
s
Dir
28/11:30pm 24.7 WNW 4 5 1011.9 - 0.0 - - 10 - - - -
28/11:00pm 24.6 WNW 4 5 1012.1 - 0.0 - - 10 - - - -
28/10:30pm 25.1 NW 4 5 1011.5 - 0.0 - - 10 - - - -
28/10:00pm 25.5 NW 4 6 1011.8 - 0.0 - - 10 - - - -
28/09:30pm 25.5 NW 4 5 1011.5 - 0.0 - - 10 - - - -
28/09:00pm 25.9 NNW 5 7 1011.2 - 0.0 - - 10 - - - -
28/08:30pm 26.2 NNW 5 7 1011.0 - 0.0 - - 10 - - - -
28/08:00pm 26.4 NNW 5 7 1010.7 - 0.0 - - 10 - - - -
28/07:30pm 26.7 NNW 5 7 1010.0 - 0.0 - - 10 - - - -
28/07:00pm 27.2 NNW 5 11 1010.0 - 0.0 - - 10 - - - -
28/06:30pm 28.0 NNW 7 10 1009.7 - 0.0 - - 10 - - - -
28/06:00pm 29.0 N 8 12 1009.4 - 0.0 - - 10 - - - -
28/05:30pm 29.6 N 9 13 1009.3 - 0.0 - - 10 - - - -
28/05:00pm 30.8 N 7 11 1009.3 - 0.0 - - 10 - - - -
28/04:30pm 31.3 NNW 8 14 1008.7 - 0.0 - - 10 - - - -
28/04:00pm 33.6 NNW 8 12 1009.0 - 0.0 - - 10 - - - -
28/03:30pm 33.4 NNW 8 11 1009.2 - 0.0 - - 10 - - - -
28/03:00pm 33.4 N 9 13 1009.5 - 0.0 - - 10 - - - -
28/02:30pm 33.0 NNW 9 13 1010.0 - 0.0 - - 10 - - - -
28/02:00pm 33.2 N 8 12 1010.5 - 0.0 - - 10 - - - -
28/01:30pm 33.7 NNW 9 12 1010.5 - 0.0 - - 10 - - - -
28/01:00pm 34.5 N 10 14 1011.6 - 0.0 - - 10 - - - -
28/12:30pm 36.1 NW 6 9 1012.2 - 0.0 - - 10 - - - -
28/12:00pm 35.7 SW 7 10 1012.8 - 0.0 - - 10 - - - -
28/11:30am 34.2 S 5 10 1013.4 - 0.0 - - 10 - - - -
28/11:00am 32.7 SSW 7 11 1014.0 - 0.0 - - 10 - - - -
28/10:30am 32.1 SW 7 11 1013.5 - 0.0 - - 10 - - - -
28/10:00am 30.0 SW 9 14 1014.2 - 0.0 - - 10 - - - -
28/09:30am 29.3 SW 8 13 1014.3 - 0.0 - - 10 - - - -
28/09:00am 28.2 SW 9 12 1014.1 - 0.0 - - 10 - - - -
28/08:30am 27.0 SW 6 8 1014.1 - 0.0 - - 10 - - - -
28/08:00am 25.7 SSW 6 10 1014.0 - 0.0 - - 10 - - - -
28/07:30am 24.9 SSW 7 10 1013.2 - 0.0 - - 10 - - - -
28/07:00am 24.2 SW 6 8 1013.3 - 0.0 - - 10 - - - -

Other Formats:

Comma delimited format used in spreadsheet applications
http://www.bom.gov.au/fwo/IDD60701/IDD60701.95101.axf

JavaScript Object Notation format (JSON) in row-major order
http://www.bom.gov.au/fwo/IDD60701/IDD60701.95101.json